Time;durP1;ratioP1;P1;durP2;ratioP2;P2;SDS_P1;SDS_P2;PMS_P1;PMS_P2;Temp;Humidity;BMP_temperature;BMP_pressure;BME280_temperature;BME280_humidity;BME280_pressure;Samples;Min_cycle;Max_cycle;Signal;HPM_P1;HPM_P2
2022/03/06 00:00:46;;;;;;;26.23;14.67;;;-2.30;99.90;;;;;;5021622;28;20098;-77
2022/03/06 00:03:13;;;;;;;37.87;20.47;;;-2.30;99.90;;;;;;5021150;28;20057;-77
2022/03/06 00:05:39;;;;;;;33.43;19.07;;;-2.30;99.90;;;;;;5021485;28;20026;-77
2022/03/06 00:08:05;;;;;;;28.67;16.93;;;-2.30;99.90;;;;;;5003107;28;20057;-77
2022/03/06 00:10:30;;;;;;;29.90;19.20;;;-2.40;99.90;;;;;;5003765;28;20022;-77
2022/03/06 00:12:56;;;;;;;28.03;14.03;;;-2.40;99.90;;;;;;5004830;28;20061;-77
2022/03/06 00:15:31;;;;;;;26.93;14.73;;;-2.40;99.90;;;;;;5022397;28;20037;-77
2022/03/06 00:17:57;;;;;;;23.20;13.25;;;-2.50;99.90;;;;;;5022711;28;20121;-77
2022/03/06 00:20:23;;;;;;;26.17;14.43;;;-2.40;99.90;;;;;;5006028;28;20416;-77
2022/03/06 00:22:48;;;;;;;25.67;14.43;;;-2.40;99.90;;;;;;5023351;28;20088;-77
2022/03/06 00:25:14;;;;;;;29.67;14.10;;;-2.40;99.90;;;;;;5024915;28;20037;-77
2022/03/06 00:27:40;;;;;;;22.13;12.83;;;-2.40;99.90;;;;;;5026035;28;20036;-77
2022/03/06 00:30:06;;;;;;;23.03;13.20;;;-2.40;99.90;;;;;;5026343;28;20030;-77
2022/03/06 00:32:32;;;;;;;25.43;12.97;;;-2.40;99.90;;;;;;5024933;28;20030;-77
2022/03/06 00:34:57;;;;;;;23.33;13.20;;;-2.40;99.90;;;;;;5025385;28;20037;-77
2022/03/06 00:37:23;;;;;;;24.60;13.23;;;-2.40;99.90;;;;;;5025343;28;20034;-77
2022/03/06 00:39:48;;;;;;;24.17;13.30;;;-2.40;99.90;;;;;;5024225;28;20080;-77
2022/03/06 00:42:14;;;;;;;26.07;12.73;;;-2.40;99.90;;;;;;5018627;28;20026;-77
2022/03/06 00:44:39;;;;;;;22.50;12.37;;;-2.40;99.90;;;;;;5018269;28;20030;-76
2022/03/06 00:47:05;;;;;;;25.00;14.03;;;-2.40;99.90;;;;;;5018616;28;20030;-76
2022/03/06 00:49:32;;;;;;;25.20;13.30;;;-2.30;99.90;;;;;;5022806;28;20041;-76
2022/03/06 00:51:58;;;;;;;27.90;14.37;;;-2.30;99.90;;;;;;5000040;28;20030;-76
2022/03/06 00:54:24;;;;;;;26.70;14.07;;;-2.30;99.90;;;;;;4999759;28;20041;-77
2022/03/06 00:56:49;;;;;;;26.80;14.30;;;-2.30;99.90;;;;;;5014523;28;20390;-76
2022/03/06 00:59:15;;;;;;;24.27;13.17;;;-2.40;99.90;;;;;;5014488;28;20450;-77
2022/03/06 01:01:41;;;;;;;24.80;13.53;;;-2.40;99.90;;;;;;5014664;28;20030;-76
2022/03/06 01:04:07;;;;;;;26.17;14.13;;;-2.30;99.90;;;;;;5014874;28;20037;-76
2022/03/06 01:06:32;;;;;;;25.23;14.23;;;-2.30;99.90;;;;;;5014431;28;20026;-76
2022/03/06 01:08:58;;;;;;;24.97;13.57;;;-2.40;99.90;;;;;;4996660;28;20124;-76
2022/03/06 01:11:24;;;;;;;30.57;15.17;;;-2.30;99.90;;;;;;4996678;28;20033;-76
2022/03/06 01:13:49;;;;;;;26.83;14.37;;;-2.30;99.90;;;;;;5014254;28;20050;-76
2022/03/06 01:16:15;;;;;;;25.53;13.87;;;-2.30;99.90;;;;;;5014128;28;20518;-76
2022/03/06 01:18:41;;;;;;;27.93;14.07;;;-2.40;99.90;;;;;;5014170;28;20061;-76
2022/03/06 01:21:06;;;;;;;26.40;13.97;;;-2.40;99.90;;;;;;5014182;28;20061;-76
2022/03/06 01:23:32;;;;;;;26.53;14.10;;;-2.40;99.90;;;;;;5014123;28;20470;-77
2022/03/06 01:25:58;;;;;;;27.33;14.50;;;-2.40;99.90;;;;;;5014062;28;20041;-77
2022/03/06 01:28:24;;;;;;;27.77;14.57;;;-2.30;99.90;;;;;;5014326;28;20463;-76
2022/03/06 01:30:49;;;;;;;25.83;14.50;;;-2.40;99.90;;;;;;5014193;28;20033;-77
2022/03/06 01:33:15;;;;;;;24.10;12.87;;;-2.50;99.90;;;;;;5014005;28;20446;-77
2022/03/06 01:35:41;;;;;;;28.23;14.57;;;-2.50;99.90;;;;;;5014212;28;20034;-78
2022/03/06 01:38:06;;;;;;;27.93;14.83;;;-2.50;99.90;;;;;;5014393;28;20116;-78
2022/03/06 01:40:32;;;;;;;28.27;15.23;;;-2.50;99.90;;;;;;5013978;28;20042;-78
2022/03/06 01:42:57;;;;;;;27.83;15.43;;;-2.40;99.90;;;;;;5014083;28;20057;-78
2022/03/06 01:45:24;;;;;;;28.47;14.70;;;-2.50;99.90;;;;;;5014015;28;20101;-78
2022/03/06 01:47:52;;;;;;;26.07;14.10;;;-2.60;99.90;;;;;;5014084;28;20474;-78
2022/03/06 01:50:19;;;;;;;29.37;14.87;;;-2.60;99.90;;;;;;5013619;28;20029;-78
2022/03/06 01:52:47;;;;;;;26.93;14.50;;;-2.60;99.90;;;;;;4996029;28;20404;-78
2022/03/06 01:55:14;;;;;;;26.67;14.67;;;-2.60;99.90;;;;;;5013496;28;20383;-78
2022/03/06 01:57:41;;;;;;;26.33;14.77;;;-2.50;99.90;;;;;;5013847;28;20514;-77
2022/03/06 02:00:13;;;;;;;29.70;15.77;;;-2.50;99.90;;;;;;4995622;28;20038;-78
2022/03/06 02:02:40;;;;;;;26.50;15.20;;;-2.50;99.90;;;;;;5013477;28;20030;-77
2022/03/06 02:05:06;;;;;;;27.57;15.37;;;-2.60;99.90;;;;;;4995840;28;20029;-77
2022/03/06 02:07:32;;;;;;;28.87;14.93;;;-2.60;99.90;;;;;;5013730;28;20056;-77
2022/03/06 02:09:58;;;;;;;28.57;15.43;;;-2.60;99.90;;;;;;5013400;28;20030;-77
2022/03/06 02:12:24;;;;;;;25.87;14.43;;;-2.60;99.90;;;;;;4995737;28;20120;-77
2022/03/06 02:14:52;;;;;;;26.20;15.30;;;-2.60;99.90;;;;;;5013310;28;20101;-77
2022/03/06 02:17:18;;;;;;;27.27;14.73;;;-2.60;99.90;;;;;;5013176;28;20054;-77
2022/03/06 02:19:56;;;;;;;27.57;15.30;;;-2.60;99.90;;;;;;5013211;28;20033;-77
2022/03/06 02:22:33;;;;;;;26.70;14.57;;;-2.60;99.90;;;;;;4995612;28;20026;-77
2022/03/06 02:25:01;;;;;;;27.30;14.47;;;-2.70;99.90;;;;;;4995546;28;20386;-77
2022/03/06 02:27:28;;;;;;;29.17;15.53;;;-2.70;99.90;;;;;;4995531;28;20037;-76
2022/03/06 02:29:53;;;;;;;28.73;15.83;;;-2.70;99.90;;;;;;4995594;28;20038;-77
2022/03/06 02:32:21;;;;;;;29.93;16.20;;;-2.80;99.90;;;;;;5017252;28;20537;-77
2022/03/06 02:34:49;;;;;;;28.00;15.27;;;-2.90;99.90;;;;;;5017252;28;20097;-77
2022/03/06 02:37:19;;;;;;;27.17;14.63;;;-2.90;99.90;;;;;;5017188;28;20034;-76
2022/03/06 02:39:46;;;;;;;29.10;16.27;;;-2.90;99.90;;;;;;4999369;28;20518;-77
2022/03/06 02:42:27;;;;;;;29.33;14.83;;;-3.00;99.90;;;;;;4999568;28;20028;-77
2022/03/06 02:44:53;;;;;;;35.77;19.33;;;-3.00;99.90;;;;;;5017250;28;20022;-77
2022/03/06 02:47:18;;;;;;;33.93;18.73;;;-3.10;99.90;;;;;;4999320;28;20055;-77
2022/03/06 02:49:44;;;;;;;32.27;17.53;;;-3.20;99.90;;;;;;5017225;28;20030;-77
2022/03/06 02:52:10;;;;;;;32.77;17.90;;;-3.20;99.90;;;;;;5016825;28;20061;-77
2022/03/06 02:54:36;;;;;;;35.57;17.13;;;-3.20;99.90;;;;;;5016843;28;20155;-76
2022/03/06 02:57:06;;;;;;;29.50;17.23;;;-3.30;99.90;;;;;;5017279;28;20025;-76
2022/03/06 02:59:32;;;;;;;32.93;17.30;;;-3.30;99.90;;;;;;5016638;28;20530;-77
2022/03/06 03:01:58;;;;;;;35.23;17.63;;;-3.30;99.90;;;;;;4999068;28;20172;-77
2022/03/06 03:04:23;;;;;;;30.27;15.97;;;-3.40;99.90;;;;;;5016808;28;20030;-76
2022/03/06 03:06:50;;;;;;;31.33;16.77;;;-3.40;99.90;;;;;;5016659;28;20171;-77
2022/03/06 03:09:19;;;;;;;32.03;18.27;;;-3.40;99.90;;;;;;5016635;28;20034;-76
2022/03/06 03:11:46;;;;;;;29.20;16.80;;;-3.40;99.90;;;;;;5016590;28;20374;-76
2022/03/06 03:14:13;;;;;;;32.10;17.93;;;-3.40;99.90;;;;;;5016447;28;20037;-77
2022/03/06 03:16:39;;;;;;;31.30;16.27;;;-3.50;99.90;;;;;;5016340;28;20410;-77
2022/03/06 03:19:05;;;;;;;31.00;17.00;;;-3.50;99.90;;;;;;5016584;28;20045;-76
2022/03/06 03:21:31;;;;;;;30.07;16.90;;;-3.50;99.90;;;;;;4999183;28;20371;-77
2022/03/06 03:23:57;;;;;;;30.50;16.03;;;-3.50;99.90;;;;;;5016308;28;20064;-77
2022/03/06 03:26:23;;;;;;;34.30;17.20;;;-3.50;99.90;;;;;;5016285;28;20494;-76
2022/03/06 03:28:48;;;;;;;30.40;17.27;;;-3.50;99.90;;;;;;4999055;28;20029;-76
2022/03/06 03:31:14;;;;;;;32.10;17.83;;;-3.50;99.90;;;;;;5016760;28;20026;-76
2022/03/06 03:33:40;;;;;;;37.13;19.63;;;-3.50;99.90;;;;;;5016185;28;20037;-76
2022/03/06 03:36:06;;;;;;;32.50;18.13;;;-3.50;99.90;;;;;;5016057;28;20099;-76
2022/03/06 03:38:32;;;;;;;36.17;19.00;;;-3.40;99.90;;;;;;5015889;28;20026;-77
2022/03/06 03:40:57;;;;;;;36.70;19.57;;;-3.50;99.90;;;;;;4998464;28;20081;-77
2022/03/06 03:43:23;;;;;;;37.17;19.20;;;-3.40;99.90;;;;;;5015838;28;20083;-77
2022/03/06 03:45:50;;;;;;;37.03;20.33;;;-3.40;99.90;;;;;;4998614;28;20129;-77
2022/03/06 03:48:16;;;;;;;40.47;19.73;;;-3.40;99.90;;;;;;5015801;28;20432;-77
2022/03/06 03:50:42;;;;;;;35.70;18.30;;;-3.40;99.90;;;;;;5015965;28;20422;-77
2022/03/06 03:53:07;;;;;;;32.47;16.93;;;-3.30;99.90;;;;;;5015704;28;20022;-77
2022/03/06 03:55:33;;;;;;;30.30;16.50;;;-3.20;99.90;;;;;;5015960;28;20057;-77
2022/03/06 03:57:58;;;;;;;29.67;16.37;;;-3.20;99.90;;;;;;5015554;28;20030;-77
2022/03/06 04:00:24;;;;;;;33.77;16.30;;;-3.20;99.90;;;;;;5015775;28;20030;-77
2022/03/06 04:02:50;;;;;;;29.37;16.57;;;-3.10;99.90;;;;;;4997879;28;20030;-76
2022/03/06 04:05:15;;;;;;;34.33;16.33;;;-3.10;99.90;;;;;;5015538;28;20075;-76
2022/03/06 04:07:41;;;;;;;30.23;16.17;;;-3.00;99.90;;;;;;5015710;28;20026;-76
2022/03/06 04:10:07;;;;;;;31.13;16.20;;;-3.00;99.90;;;;;;4998294;28;20030;-77
2022/03/06 04:12:32;;;;;;;27.90;15.07;;;-2.90;99.90;;;;;;5015386;28;20471;-77
2022/03/06 04:14:58;;;;;;;30.53;16.90;;;-2.90;99.90;;;;;;5015798;28;20034;-76
2022/03/06 04:17:24;;;;;;;29.80;16.83;;;-2.80;99.90;;;;;;4997518;28;20058;-77
2022/03/06 04:19:49;;;;;;;31.93;17.43;;;-2.80;99.90;;;;;;5015165;28;20076;-77
2022/03/06 04:22:15;;;;;;;28.03;15.63;;;-2.80;99.90;;;;;;5015171;28;20646;-77
2022/03/06 04:24:40;;;;;;;29.43;15.93;;;-2.90;99.90;;;;;;5015416;28;20026;-77
2022/03/06 04:27:06;;;;;;;31.10;16.77;;;-2.80;99.90;;;;;;5015140;28;20025;-77
2022/03/06 04:29:31;;;;;;;27.17;15.27;;;-2.80;99.90;;;;;;5015041;28;20029;-77
2022/03/06 04:31:57;;;;;;;33.57;17.03;;;-2.70;99.90;;;;;;4997313;28;20451;-76
2022/03/06 04:34:23;;;;;;;31.30;16.33;;;-2.80;99.90;;;;;;5015285;28;20030;-76
2022/03/06 04:36:48;;;;;;;34.07;17.50;;;-2.90;99.90;;;;;;5015088;28;20022;-77
2022/03/06 04:39:14;;;;;;;32.87;18.10;;;-3.00;99.90;;;;;;5015038;28;20033;-77
2022/03/06 04:41:40;;;;;;;32.60;17.00;;;-3.00;99.90;;;;;;5014846;28;20382;-76
2022/03/06 04:44:05;;;;;;;28.83;15.70;;;-3.00;99.90;;;;;;5015055;28;20028;-76
2022/03/06 04:46:31;;;;;;;34.13;17.83;;;-3.00;99.90;;;;;;5014988;28;20084;-76
2022/03/06 04:48:57;;;;;;;29.43;16.07;;;-3.10;99.90;;;;;;5014944;28;20097;-77
2022/03/06 04:51:22;;;;;;;30.33;17.03;;;-3.10;99.90;;;;;;5014631;28;20116;-77
2022/03/06 04:53:48;;;;;;;30.27;16.53;;;-3.20;99.90;;;;;;5014260;28;20025;-77
2022/03/06 04:56:14;;;;;;;34.40;17.60;;;-3.20;99.90;;;;;;5014770;28;20036;-76
2022/03/06 04:58:40;;;;;;;33.93;17.07;;;-3.20;99.90;;;;;;5014473;28;20029;-77
2022/03/06 05:01:06;;;;;;;34.17;18.23;;;-3.20;99.90;;;;;;5014725;28;20026;-76
2022/03/06 05:03:32;;;;;;;32.77;16.93;;;-3.20;99.90;;;;;;5014445;28;20482;-77
2022/03/06 05:05:57;;;;;;;30.87;16.83;;;-3.20;99.90;;;;;;4996739;28;20053;-77
2022/03/06 05:08:26;;;;;;;33.23;18.13;;;-3.20;99.90;;;;;;4996823;28;20022;-77
2022/03/06 05:10:51;;;;;;;34.97;18.43;;;-3.20;99.90;;;;;;4996605;28;20032;-77
2022/03/06 05:13:17;;;;;;;32.40;17.60;;;-3.10;99.90;;;;;;5014521;28;20025;-77
2022/03/06 05:15:43;;;;;;;33.80;17.30;;;-3.10;99.90;;;;;;5014493;28;20050;-77
2022/03/06 05:18:09;;;;;;;31.17;16.83;;;-3.10;99.90;;;;;;5013985;28;20117;-77
2022/03/06 05:20:34;;;;;;;31.93;16.70;;;-3.10;99.90;;;;;;5014289;28;20117;-77
2022/03/06 05:23:00;;;;;;;34.33;18.10;;;-3.10;99.90;;;;;;5014168;28;20058;-76
2022/03/06 05:25:25;;;;;;;35.80;19.77;;;-3.20;99.90;;;;;;4996421;28;20025;-76
2022/03/06 05:27:51;;;;;;;34.87;18.10;;;-3.20;99.90;;;;;;5014435;28;20022;-76
2022/03/06 05:30:17;;;;;;;33.37;18.10;;;-3.10;99.90;;;;;;5014032;28;20494;-76
2022/03/06 05:32:42;;;;;;;38.17;21.30;;;-3.20;99.90;;;;;;5013894;28;20058;-77
2022/03/06 05:35:10;;;;;;;33.07;19.03;;;-3.10;99.90;;;;;;5014001;28;20030;-77
2022/03/06 05:37:36;;;;;;;39.27;22.30;;;-3.10;99.90;;;;;;5014150;28;20379;-77
2022/03/06 05:40:02;;;;;;;45.67;24.27;;;-3.10;99.90;;;;;;5013755;28;20036;-77
2022/03/06 05:42:28;;;;;;;39.97;24.43;;;-3.20;99.90;;;;;;4996329;28;20128;-78
2022/03/06 05:44:53;;;;;;;38.03;22.13;;;-3.20;99.90;;;;;;5014128;28;20101;-77
2022/03/06 05:47:19;;;;;;;34.33;19.00;;;-3.20;99.90;;;;;;5014077;28;20372;-78
2022/03/06 05:49:44;;;;;;;32.47;19.20;;;-3.20;99.90;;;;;;5013718;28;20510;-78
2022/03/06 05:52:10;;;;;;;33.80;18.40;;;-3.30;99.90;;;;;;5013664;28;20022;-77
2022/03/06 05:54:36;;;;;;;37.00;18.53;;;-3.30;99.90;;;;;;5013579;28;20405;-77
2022/03/06 05:57:01;;;;;;;31.20;17.27;;;-3.30;99.90;;;;;;5013648;28;20026;-77
2022/03/06 05:59:27;;;;;;;30.23;17.33;;;-3.30;99.90;;;;;;5013413;28;20106;-77
2022/03/06 06:01:52;;;;;;;50.17;26.37;;;-3.40;99.90;;;;;;5013927;28;20021;-77
2022/03/06 06:04:19;;;;;;;63.57;31.50;;;-3.40;99.90;;;;;;5013487;28;20053;-77
2022/03/06 06:06:44;;;;;;;69.33;33.00;;;-3.40;99.90;;;;;;5012770;28;20018;-77
2022/03/06 06:09:10;;;;;;;72.87;35.70;;;-3.40;99.90;;;;;;5013909;28;20032;-77
2022/03/06 06:12:26;;;;;;;64.00;35.00;;;-3.40;99.90;;;;;;4995702;28;20482;-77
2022/03/06 06:14:53;;;;;;;36.53;20.08;;;-3.40;99.90;;;;;;4995751;28;20029;-77
2022/03/06 06:17:19;;;;;;;34.70;18.17;;;-3.50;99.90;;;;;;5013387;28;20319;-77
2022/03/06 06:19:44;;;;;;;33.80;17.30;;;-3.50;99.90;;;;;;5016592;28;20049;-77
2022/03/06 06:22:10;;;;;;;32.67;18.17;;;-3.40;99.90;;;;;;5008014;28;20025;-77
2022/03/06 06:24:36;;;;;;;30.77;16.60;;;-3.40;99.90;;;;;;5008505;28;20175;-77
2022/03/06 06:27:02;;;;;;;31.13;16.47;;;-3.40;99.90;;;;;;5025110;28;20514;-77
2022/03/06 06:29:28;;;;;;;29.47;16.10;;;-3.30;99.90;;;;;;5024210;28;20426;-77
2022/03/06 06:31:54;;;;;;;31.80;17.90;;;-3.20;99.90;;;;;;5001844;28;20030;-77
2022/03/06 06:34:20;;;;;;;32.07;16.30;;;-3.10;99.90;;;;;;5004536;28;20026;-77
2022/03/06 06:36:47;;;;;;;35.80;18.13;;;-3.00;99.90;;;;;;5005030;28;20045;-77
2022/03/06 06:39:12;;;;;;;35.57;19.10;;;-3.00;99.90;;;;;;4993727;28;20026;-77
2022/03/06 06:41:39;;;;;;;30.30;16.93;;;-3.00;99.90;;;;;;5007724;28;20029;-77
2022/03/06 06:44:05;;;;;;;30.77;16.97;;;-2.90;99.90;;;;;;5005674;28;20037;-77
2022/03/06 06:46:31;;;;;;;30.57;17.53;;;-2.90;99.90;;;;;;5025435;28;20030;-77
2022/03/06 06:48:56;;;;;;;30.53;17.17;;;-2.80;99.90;;;;;;5017522;28;20042;-77
2022/03/06 06:51:22;;;;;;;33.60;18.80;;;-2.70;99.90;;;;;;5013041;28;20062;-76
2022/03/06 06:53:47;;;;;;;31.80;17.07;;;-2.70;99.90;;;;;;5013237;28;20477;-76
2022/03/06 06:56:13;;;;;;;34.60;17.13;;;-2.50;99.90;;;;;;5013277;28;20032;-76
2022/03/06 06:58:39;;;;;;;33.20;18.33;;;-2.40;99.90;;;;;;4995189;28;20085;-76
2022/03/06 07:01:05;;;;;;;28.47;16.00;;;-2.40;99.90;;;;;;5013142;28;20502;-76
2022/03/06 07:03:31;;;;;;;29.13;16.60;;;-2.30;99.90;;;;;;5013116;28;20026;-76
2022/03/06 07:05:58;;;;;;;29.67;16.03;;;-2.20;99.90;;;;;;5012814;28;20477;-76
2022/03/06 07:08:23;;;;;;;29.90;16.17;;;-1.90;99.90;;;;;;4995110;28;20026;-76
2022/03/06 07:10:49;;;;;;;32.40;18.10;;;-1.90;99.90;;;;;;4995141;28;20053;-76
2022/03/06 07:13:15;;;;;;;31.63;17.07;;;-1.90;99.90;;;;;;5012978;28;20029;-76
2022/03/06 07:15:41;;;;;;;29.47;16.80;;;-1.90;99.90;;;;;;4995062;28;20034;-76
2022/03/06 07:18:06;;;;;;;29.63;16.67;;;-1.90;99.90;;;;;;5015677;28;20050;-77
2022/03/06 07:20:32;;;;;;;32.60;17.43;;;-1.90;99.90;;;;;;5010492;28;20057;-77
2022/03/06 07:23:07;;;;;;;31.77;16.93;;;-1.70;99.90;;;;;;5012736;28;20072;-84
2022/03/06 07:25:33;;;;;;;29.60;16.10;;;-1.50;99.90;;;;;;5013164;28;20431;-77
2022/03/06 07:27:58;;;;;;;33.00;17.13;;;-1.30;99.90;;;;;;4998705;28;20118;-75
2022/03/06 07:30:24;;;;;;;30.17;16.13;;;-1.40;99.90;;;;;;5016553;28;20097;-76
2022/03/06 07:32:52;;;;;;;30.60;16.70;;;-1.30;99.90;;;;;;5016272;28;20383;-76
2022/03/06 07:35:19;;;;;;;28.60;14.70;;;-1.30;99.90;;;;;;5016328;28;20052;-76
2022/03/06 07:37:45;;;;;;;30.17;16.30;;;-1.20;99.90;;;;;;5013673;28;20485;-75
2022/03/06 07:40:13;;;;;;;31.13;16.37;;;-1.10;99.90;;;;;;5016001;28;20382;-76
2022/03/06 07:42:38;;;;;;;36.87;19.10;;;-1.00;99.90;;;;;;5016074;28;20018;-76
2022/03/06 07:45:05;;;;;;;121.33;37.77;;;-0.90;99.90;;;;;;4996768;28;20025;-77
2022/03/06 07:47:30;;;;;;;91.53;29.07;;;-0.80;99.90;;;;;;5012048;28;20474;-79
2022/03/06 07:49:56;;;;;;;63.97;25.53;;;-0.70;99.90;;;;;;5004004;28;20029;-79
2022/03/06 07:52:22;;;;;;;40.23;19.93;;;-0.60;99.90;;;;;;4987473;28;20513;-80
2022/03/06 07:54:53;;;;;;;30.07;16.83;;;-0.50;99.90;;;;;;5003624;28;20045;-78
2022/03/06 07:57:19;;;;;;;28.47;15.77;;;-0.30;99.90;;;;;;5011850;28;20061;-79
2022/03/06 07:59:44;;;;;;;33.47;16.97;;;-0.20;99.90;;;;;;5011381;28;20080;-77
2022/03/06 08:02:10;;;;;;;42.03;20.70;;;-0.20;99.90;;;;;;4994103;28;20033;-80
2022/03/06 08:04:35;;;;;;;32.57;17.63;;;-0.10;99.90;;;;;;4998790;28;20041;-79
2022/03/06 08:07:01;;;;;;;28.03;15.83;;;-0.10;99.90;;;;;;4999837;28;20022;-80
2022/03/06 08:09:27;;;;;;;28.67;14.90;;;0.00;99.90;;;;;;4992382;28;20102;-80
2022/03/06 08:11:53;;;;;;;26.93;14.90;;;0.10;99.90;;;;;;4992858;28;20368;-80
2022/03/06 08:14:19;;;;;;;28.23;15.03;;;0.10;99.90;;;;;;4992385;28;20041;-80
2022/03/06 08:16:44;;;;;;;25.40;14.20;;;0.10;99.90;;;;;;4998075;28;20054;-79
2022/03/06 08:19:10;;;;;;;27.57;15.00;;;0.20;99.90;;;;;;4992813;28;20027;-80
2022/03/06 08:21:35;;;;;;;25.77;13.83;;;0.40;99.90;;;;;;5001157;28;20026;-80
2022/03/06 08:24:01;;;;;;;24.00;13.43;;;0.50;99.90;;;;;;5011515;28;20068;-80
2022/03/06 08:26:27;;;;;;;24.70;14.83;;;0.60;99.90;;;;;;5009268;28;20026;-78
2022/03/06 08:28:53;;;;;;;25.60;14.37;;;0.60;99.90;;;;;;5009622;28;20036;-79
2022/03/06 08:31:19;;;;;;;27.60;15.13;;;0.70;99.90;;;;;;4991632;28;20108;-78
2022/03/06 08:33:45;;;;;;;24.77;14.80;;;0.80;99.90;;;;;;4991830;28;20081;-78
2022/03/06 08:36:11;;;;;;;29.37;15.50;;;0.90;99.90;;;;;;4991406;28;20034;-79
2022/03/06 08:38:37;;;;;;;28.77;14.97;;;0.90;99.90;;;;;;5008528;28;20033;-78
2022/03/06 08:41:02;;;;;;;25.23;14.33;;;1.00;99.90;;;;;;5009163;28;20032;-79
2022/03/06 08:43:28;;;;;;;23.53;13.47;;;1.00;99.90;;;;;;5009307;28;20152;-79
2022/03/06 08:45:54;;;;;;;24.57;14.83;;;1.30;99.90;;;;;;4996107;28;20823;-79
2022/03/06 08:48:21;;;;;;;26.20;15.57;;;1.40;99.90;;;;;;5007434;28;20069;-79
2022/03/06 08:50:49;;;;;;;23.37;13.87;;;1.40;99.90;;;;;;5009101;28;20030;-79
2022/03/06 08:53:18;;;;;;;27.33;14.63;;;1.40;99.90;;;;;;5009338;28;20783;-79
2022/03/06 08:55:44;;;;;;;21.90;14.17;;;1.50;99.90;;;;;;5008916;28;20014;-79
2022/03/06 08:58:09;;;;;;;24.90;14.17;;;1.50;99.90;;;;;;4991458;28;20815;-79
2022/03/06 09:00:35;;;;;;;20.13;12.73;;;1.80;99.90;;;;;;5008893;28;20026;-79
2022/03/06 09:03:01;;;;;;;23.50;13.57;;;2.00;99.90;;;;;;5008603;28;20022;-79
2022/03/06 09:05:26;;;;;;;23.83;13.33;;;2.10;99.90;;;;;;5008605;28;20026;-79
2022/03/06 09:07:52;;;;;;;20.87;13.47;;;2.20;99.90;;;;;;4990505;28;20117;-79
2022/03/06 09:10:17;;;;;;;20.47;12.17;;;2.40;99.90;;;;;;4991128;28;20117;-79
2022/03/06 09:12:43;;;;;;;19.57;12.40;;;2.80;99.90;;;;;;5008018;28;20042;-79
2022/03/06 09:15:10;;;;;;;21.03;12.30;;;3.00;99.90;;;;;;5008645;28;20026;-79
2022/03/06 09:17:36;;;;;;;24.30;13.50;;;3.20;99.90;;;;;;5008357;28;20728;-79
2022/03/06 09:20:03;;;;;;;20.13;12.37;;;3.40;99.90;;;;;;5008499;28;20121;-79
2022/03/06 09:22:29;;;;;;;22.23;13.73;;;3.50;99.90;;;;;;5008251;28;20018;-79
2022/03/06 09:24:54;;;;;;;20.17;12.87;;;3.60;99.90;;;;;;5008408;28;20558;-78
2022/03/06 09:27:20;;;;;;;19.27;12.60;;;3.60;99.90;;;;;;5008201;28;20025;-78
2022/03/06 09:29:45;;;;;;;20.73;12.30;;;3.70;99.90;;;;;;5008408;28;20037;-78
2022/03/06 09:32:11;;;;;;;19.70;12.80;;;3.70;99.90;;;;;;5008073;28;20080;-78
2022/03/06 09:34:37;;;;;;;20.50;13.20;;;3.70;99.90;;;;;;4990291;28;20153;-78
2022/03/06 09:37:02;;;;;;;22.80;14.20;;;3.80;99.90;;;;;;4990055;28;20030;-78
2022/03/06 09:39:28;;;;;;;25.00;15.07;;;3.90;99.90;;;;;;4990067;28;20044;-78
2022/03/06 09:41:55;;;;;;;86.67;32.73;;;4.30;99.90;;;;;;5008143;28;20028;-78
2022/03/06 09:44:24;;;;;;;23.53;14.13;;;4.50;99.90;;;;;;4988874;28;20034;-78
2022/03/06 09:46:52;;;;;;;22.47;13.43;;;4.50;99.90;;;;;;4994504;28;20030;-78
2022/03/06 09:49:18;;;;;;;24.17;14.13;;;4.50;99.90;;;;;;4990326;28;20435;-78
2022/03/06 09:51:44;;;;;;;18.53;11.33;;;4.70;99.90;;;;;;5007771;28;20112;-78
2022/03/06 09:54:12;;;;;;;25.00;13.63;;;5.00;99.90;;;;;;5008024;28;20105;-78
2022/03/06 09:56:38;;;;;;;20.20;12.07;;;4.80;99.50;;;;;;5007562;28;20030;-78
2022/03/06 09:59:04;;;;;;;30.90;16.10;;;4.70;99.00;;;;;;5007697;28;20026;-78
2022/03/06 10:01:30;;;;;;;24.20;14.20;;;4.80;99.90;;;;;;5007752;28;20018;-78
2022/03/06 10:03:56;;;;;;;16.77;10.60;;;4.80;99.90;;;;;;5007802;28;20033;-79
2022/03/06 10:06:21;;;;;;;20.73;12.63;;;4.80;98.70;;;;;;5007647;28;20030;-79
2022/03/06 10:09:03;;;;;;;22.83;13.23;;;4.80;99.60;;;;;;4989147;28;20029;-79
2022/03/06 10:11:29;;;;;;;19.17;11.63;;;5.10;99.60;;;;;;4987868;28;20049;-78
2022/03/06 10:13:54;;;;;;;23.37;13.00;;;5.20;98.40;;;;;;4988161;28;20791;-78
2022/03/06 10:16:21;;;;;;;21.07;11.77;;;5.10;98.10;;;;;;4970441;28;20365;-78
2022/03/06 10:18:52;;;;;;;18.30;12.37;;;5.40;97.70;;;;;;4987634;28;20034;-79
2022/03/06 10:21:26;;;;;;;18.40;11.93;;;5.50;97.10;;;;;;5005038;28;20103;-79
2022/03/06 10:24:08;;;;;;;28.80;17.90;;;5.80;96.00;;;;;;5008235;28;20384;-78
2022/03/06 10:26:36;;;;;;;21.07;13.20;;;5.90;93.70;;;;;;5007318;28;20026;-78
2022/03/06 10:29:05;;;;;;;19.67;12.93;;;5.90;93.90;;;;;;4990271;28;20368;-79
2022/03/06 10:31:33;;;;;;;19.10;10.77;;;5.70;92.20;;;;;;5007471;28;20065;-78
2022/03/06 10:34:05;;;;;;;19.30;12.43;;;5.70;92.80;;;;;;5007691;28;20030;-79
2022/03/06 10:36:40;;;;;;;17.97;11.37;;;5.90;92.20;;;;;;5007572;28;20060;-78
2022/03/06 10:39:10;;;;;;;;;;;5.70;92.20;;;;;;5007929;28;20519;-78
2022/03/06 10:41:39;;;;;;;16.90;11.33;;;5.90;92.30;;;;;;4989246;28;20752;-78
2022/03/06 10:44:07;;;;;;;22.43;14.40;;;6.10;92.10;;;;;;5006844;28;20078;-78
2022/03/06 10:46:33;;;;;;;17.30;11.07;;;6.40;91.10;;;;;;4998182;28;21200;-78
2022/03/06 10:49:02;;;;;;;30.37;17.33;;;6.30;91.80;;;;;;4988962;28;20081;-78
2022/03/06 10:51:28;;;;;;;30.13;17.20;;;6.40;90.10;;;;;;4990153;28;20029;-78
2022/03/06 10:53:58;;;;;;;18.93;11.17;;;6.40;88.90;;;;;;5011071;28;20029;-78
2022/03/06 10:56:25;;;;;;;37.53;18.43;;;6.30;90.10;;;;;;5010884;28;20773;-78
2022/03/06 10:58:51;;;;;;;27.07;14.67;;;6.20;89.20;;;;;;4992964;28;20390;-78
2022/03/06 11:01:17;;;;;;;52.13;26.77;;;6.20;90.60;;;;;;4993109;28;20029;-78
2022/03/06 11:03:43;;;;;;;28.13;15.90;;;6.10;90.40;;;;;;5010354;28;20026;-78
2022/03/06 11:06:11;;;;;;;18.70;11.00;;;6.20;90.60;;;;;;5010686;28;20038;-78
2022/03/06 11:08:38;;;;;;;45.83;23.47;;;6.50;89.10;;;;;;4993087;28;20120;-79
2022/03/06 11:11:06;;;;;;;19.37;11.83;;;6.60;87.00;;;;;;5010383;28;20034;-79
2022/03/06 11:13:32;;;;;;;22.73;13.30;;;6.50;86.10;;;;;;5010559;28;20030;-79
2022/03/06 11:15:58;;;;;;;40.93;20.27;;;6.80;85.70;;;;;;4992758;28;20061;-79
2022/03/06 11:18:26;;;;;;;30.10;16.30;;;6.70;86.70;;;;;;4992647;28;20471;-78
2022/03/06 11:20:53;;;;;;;46.53;23.03;;;6.90;87.20;;;;;;5010624;28;20076;-67
2022/03/06 11:23:48;;;;;;;28.13;14.93;;;6.80;87.40;;;;;;5010099;28;20085;-80
2022/03/06 11:26:14;;;;;;;32.87;18.20;;;7.00;85.00;;;;;;5005122;28;20112;-80
2022/03/06 11:29:10;;;;;;;26.80;14.90;;;6.80;86.00;;;;;;4999680;28;20830;-81
2022/03/06 11:31:46;;;;;;;19.53;12.23;;;6.90;84.80;;;;;;4993296;28;20034;-80
2022/03/06 11:34:20;;;;;;;38.90;19.90;;;7.20;83.70;;;;;;4983835;28;20030;-80
2022/03/06 11:36:48;;;;;;;17.88;11.48;;;7.10;86.10;;;;;;5005070;28;20035;-80
2022/03/06 11:39:34;;;;;;;17.73;11.60;;;7.40;83.40;;;;;;4987441;28;20037;-80
2022/03/06 11:42:06;;;;;;;84.87;38.33;;;7.60;81.10;;;;;;4980727;28;20117;-80
2022/03/06 11:44:35;;;;;;;33.53;18.60;;;7.50;81.00;;;;;;4982739;28;20104;-80
2022/03/06 11:47:18;;;;;;;19.33;12.03;;;7.60;79.50;;;;;;4989437;28;20096;-78
2022/03/06 11:49:53;;;;;;;15.73;10.97;;;7.40;80.10;;;;;;4994499;28;20033;-79
2022/03/06 11:52:29;;;;;;;16.67;11.27;;;7.40;80.80;;;;;;4979095;28;20092;-79
2022/03/06 11:54:55;;;;;;;17.43;11.60;;;7.90;79.60;;;;;;5008336;28;20759;-77
2022/03/06 11:57:37;;;;;;;22.00;14.17;;;8.20;77.20;;;;;;5009363;28;20791;-73
2022/03/06 12:00:24;;;;;;;29.00;16.80;;;8.30;78.80;;;;;;5013049;28;20113;-79
2022/03/06 12:03:01;;;;;;;20.53;11.73;;;8.10;77.70;;;;;;4972617;28;20042;-80
2022/03/06 12:05:48;;;;;;;19.73;12.33;;;8.50;77.20;;;;;;5009842;28;20045;-79
2022/03/06 12:08:16;;;;;;;14.40;10.00;;;8.60;74.10;;;;;;4994180;28;20387;-79
2022/03/06 12:10:43;;;;;;;14.47;9.63;;;8.50;74.50;;;;;;4994278;28;20117;-79
2022/03/06 12:13:19;;;;;;;14.57;10.10;;;8.50;72.70;;;;;;4992600;28;20026;-79
2022/03/06 12:16:01;;;;;;;13.70;9.37;;;8.30;73.00;;;;;;4992917;28;20069;-80
2022/03/06 12:18:27;;;;;;;13.63;10.00;;;8.20;73.90;;;;;;4992740;28;20050;-80
2022/03/06 12:20:54;;;;;;;12.93;9.43;;;8.20;74.60;;;;;;4988358;28;20034;-80
2022/03/06 12:23:22;;;;;;;14.23;9.20;;;8.10;74.00;;;;;;5012136;28;20418;-80
2022/03/06 12:25:53;;;;;;;13.27;9.57;;;8.00;73.60;;;;;;5012192;28;20022;-80
2022/03/06 12:28:21;;;;;;;16.10;11.43;;;7.90;73.70;;;;;;4994304;28;20026;-80
2022/03/06 12:30:48;;;;;;;14.77;10.63;;;7.40;74.80;;;;;;4994427;28;20571;-80